sensor_id;sensor_type;location;lat;lon;timestamp;pressure;altitude;pressure_sealevel;temperature;humidity
62712;BME280;48772;55.586;37.730;2023-03-14T00:00:33;99102.28;;;-3.80;100.00
62712;BME280;48772;55.586;37.730;2023-03-14T00:02:59;99100.34;;;-3.74;100.00
62712;BME280;48772;55.586;37.730;2023-03-14T00:05:25;99112.31;;;-3.68;100.00
62712;BME280;48772;55.586;37.730;2023-03-14T00:07:51;99104.66;;;-3.73;100.00
62712;BME280;48772;55.586;37.730;2023-03-14T00:10:16;99108.72;;;-3.64;100.00
62712;BME280;48772;55.586;37.730;2023-03-14T00:12:43;99088.63;;;-3.61;100.00
62712;BME280;48772;55.586;37.730;2023-03-14T00:15:10;99052.97;;;-3.85;100.00
62712;BME280;48772;55.586;37.730;2023-03-14T00:17:36;99074.69;;;-3.60;100.00
62712;BME280;48772;55.586;37.730;2023-03-14T00:20:04;99077.94;;;-3.53;100.00
62712;BME280;48772;55.586;37.730;2023-03-14T00:22:35;99067.50;;;-3.52;100.00
62712;BME280;48772;55.586;37.730;2023-03-14T00:25:01;99047.03;;;-3.64;100.00
62712;BME280;48772;55.586;37.730;2023-03-14T00:27:28;99039.16;;;-3.62;100.00
62712;BME280;48772;55.586;37.730;2023-03-14T00:29:54;99041.72;;;-3.61;100.00
62712;BME280;48772;55.586;37.730;2023-03-14T00:32:20;99055.88;;;-3.43;100.00
62712;BME280;48772;55.586;37.730;2023-03-14T00:34:45;99026.47;;;-3.47;100.00
62712;BME280;48772;55.586;37.730;2023-03-14T00:37:13;99050.38;;;-3.34;100.00
62712;BME280;48772;55.586;37.730;2023-03-14T00:39:39;99035.69;;;-3.36;100.00
62712;BME280;48772;55.586;37.730;2023-03-14T00:42:05;99021.22;;;-3.45;100.00
62712;BME280;48772;55.586;37.730;2023-03-14T00:44:31;99029.56;;;-3.35;100.00
62712;BME280;48772;55.586;37.730;2023-03-14T00:46:57;99033.66;;;-3.28;100.00
62712;BME280;48772;55.586;37.730;2023-03-14T00:49:24;99020.75;;;-3.31;100.00
62712;BME280;48772;55.586;37.730;2023-03-14T00:51:50;99034.09;;;-3.16;100.00
62712;BME280;48772;55.586;37.730;2023-03-14T00:54:18;99036.66;;;-3.14;100.00
62712;BME280;48772;55.586;37.730;2023-03-14T00:56:44;99008.06;;;-3.17;100.00
62712;BME280;48772;55.586;37.730;2023-03-14T00:59:09;99001.38;;;-3.24;100.00
62712;BME280;48772;55.586;37.730;2023-03-14T01:01:35;99035.88;;;-3.18;100.00
62712;BME280;48772;55.586;37.730;2023-03-14T01:04:01;99026.16;;;-3.13;100.00
62712;BME280;48772;55.586;37.730;2023-03-14T01:06:28;98943.53;;;-3.59;100.00
62712;BME280;48772;55.586;37.730;2023-03-14T01:08:55;99023.94;;;-3.00;100.00
62712;BME280;48772;55.586;37.730;2023-03-14T01:11:29;99020.44;;;-2.99;100.00
62712;BME280;48772;55.586;37.730;2023-03-14T01:13:57;99041.97;;;-2.94;100.00
62712;BME280;48772;55.586;37.730;2023-03-14T01:16:25;99002.75;;;-3.14;100.00
62712;BME280;48772;55.586;37.730;2023-03-14T01:18:52;98993.09;;;-3.12;100.00
62712;BME280;48772;55.586;37.730;2023-03-14T01:21:28;99017.38;;;-2.87;100.00
62712;BME280;48772;55.586;37.730;2023-03-14T01:23:56;99014.94;;;-2.92;100.00
62712;BME280;48772;55.586;37.730;2023-03-14T01:26:24;99003.94;;;-3.00;100.00
62712;BME280;48772;55.586;37.730;2023-03-14T01:28:53;98982.41;;;-3.05;100.00
62712;BME280;48772;55.586;37.730;2023-03-14T01:31:19;99022.59;;;-2.87;100.00
62712;BME280;48772;55.586;37.730;2023-03-14T01:33:45;98999.59;;;-2.76;100.00
62712;BME280;48772;55.586;37.730;2023-03-14T01:36:11;98978.38;;;-2.90;100.00
62712;BME280;48772;55.586;37.730;2023-03-14T01:38:38;98954.75;;;-2.86;100.00
62712;BME280;48772;55.586;37.730;2023-03-14T01:41:08;98962.66;;;-2.89;100.00
62712;BME280;48772;55.586;37.730;2023-03-14T01:43:37;98944.25;;;-2.84;100.00
62712;BME280;48772;55.586;37.730;2023-03-14T01:51:42;98947.97;;;-2.68;100.00
62712;BME280;48772;55.586;37.730;2023-03-14T01:54:15;98976.59;;;-2.67;100.00
62712;BME280;48772;55.586;37.730;2023-03-14T01:56:44;98939.00;;;-2.61;100.00
62712;BME280;48772;55.586;37.730;2023-03-14T01:59:12;98931.84;;;-2.56;100.00
62712;BME280;48772;55.586;37.730;2023-03-14T02:01:40;98896.03;;;-2.74;100.00
62712;BME280;48772;55.586;37.730;2023-03-14T02:04:08;98935.06;;;-2.50;100.00
62712;BME280;48772;55.586;37.730;2023-03-14T02:06:53;98921.28;;;-2.53;100.00
62712;BME280;48772;55.586;37.730;2023-03-14T02:09:25;98930.94;;;-2.55;100.00
62712;BME280;48772;55.586;37.730;2023-03-14T02:11:52;98909.53;;;-2.63;100.00
62712;BME280;48772;55.586;37.730;2023-03-14T02:14:37;98946.75;;;-2.38;100.00
62712;BME280;48772;55.586;37.730;2023-03-14T02:17:40;98920.00;;;-2.43;100.00
62712;BME280;48772;55.586;37.730;2023-03-14T02:20:59;98909.25;;;-2.36;100.00
62712;BME280;48772;55.586;37.730;2023-03-14T02:26:20;98909.91;;;-2.31;100.00
62712;BME280;48772;55.586;37.730;2023-03-14T02:28:47;98899.53;;;-2.32;100.00
62712;BME280;48772;55.586;37.730;2023-03-14T02:31:15;98894.69;;;-2.41;100.00
62712;BME280;48772;55.586;37.730;2023-03-14T02:33:41;98847.97;;;-2.47;100.00
62712;BME280;48772;55.586;37.730;2023-03-14T02:36:10;98899.28;;;-2.26;100.00
62712;BME280;48772;55.586;37.730;2023-03-14T02:38:52;98923.25;;;-2.17;100.00
62712;BME280;48772;55.586;37.730;2023-03-14T02:41:21;98816.13;;;-2.55;100.00
62712;BME280;48772;55.586;37.730;2023-03-14T02:43:57;98842.69;;;-2.26;100.00
62712;BME280;48772;55.586;37.730;2023-03-14T02:46:23;98856.88;;;-2.11;100.00
62712;BME280;48772;55.586;37.730;2023-03-14T02:49:02;98841.34;;;-2.14;100.00
62712;BME280;48772;55.586;37.730;2023-03-14T02:51:31;98808.69;;;-2.24;100.00
62712;BME280;48772;55.586;37.730;2023-03-14T02:53:58;98860.47;;;-2.14;100.00
62712;BME280;48772;55.586;37.730;2023-03-14T02:56:24;98856.03;;;-2.12;100.00
62712;BME280;48772;55.586;37.730;2023-03-14T02:58:50;98824.28;;;-2.23;100.00
62712;BME280;48772;55.586;37.730;2023-03-14T03:01:34;98814.31;;;-2.13;100.00
62712;BME280;48772;55.586;37.730;2023-03-14T03:04:00;98857.47;;;-2.05;100.00
62712;BME280;48772;55.586;37.730;2023-03-14T03:06:25;98833.91;;;-2.03;100.00
62712;BME280;48772;55.586;37.730;2023-03-14T03:08:51;98833.78;;;-2.00;100.00
62712;BME280;48772;55.586;37.730;2023-03-14T03:11:17;98835.13;;;-2.12;100.00
62712;BME280;48772;55.586;37.730;2023-03-14T03:13:43;98853.47;;;-2.13;100.00
62712;BME280;48772;55.586;37.730;2023-03-14T03:16:09;98887.69;;;-1.99;100.00
62712;BME280;48772;55.586;37.730;2023-03-14T03:18:35;98795.31;;;-2.37;100.00
62712;BME280;48772;55.586;37.730;2023-03-14T03:21:02;98819.09;;;-2.03;100.00
62712;BME280;48772;55.586;37.730;2023-03-14T03:23:28;98829.56;;;-1.84;100.00
62712;BME280;48772;55.586;37.730;2023-03-14T03:25:54;98791.53;;;-2.10;100.00
62712;BME280;48772;55.586;37.730;2023-03-14T03:28:20;98806.59;;;-1.96;100.00
62712;BME280;48772;55.586;37.730;2023-03-14T03:30:46;98797.22;;;-2.00;100.00
62712;BME280;48772;55.586;37.730;2023-03-14T03:33:12;98808.72;;;-1.86;100.00
62712;BME280;48772;55.586;37.730;2023-03-14T03:35:48;98791.56;;;-1.91;100.00
62712;BME280;48772;55.586;37.730;2023-03-14T03:38:18;98775.63;;;-1.85;100.00
62712;BME280;48772;55.586;37.730;2023-03-14T03:40:47;98797.16;;;-1.80;100.00
62712;BME280;48772;55.586;37.730;2023-03-14T03:43:13;98776.63;;;-1.69;100.00
62712;BME280;48772;55.586;37.730;2023-03-14T03:45:42;98770.56;;;-1.70;100.00
62712;BME280;48772;55.586;37.730;2023-03-14T03:48:08;98734.47;;;-1.99;100.00
62712;BME280;48772;55.586;37.730;2023-03-14T03:50:34;98793.47;;;-1.56;100.00
62712;BME280;48772;55.586;37.730;2023-03-14T03:52:59;98753.59;;;-1.61;100.00
62712;BME280;48772;55.586;37.730;2023-03-14T03:55:25;98743.25;;;-1.63;100.00
62712;BME280;48772;55.586;37.730;2023-03-14T03:57:53;98767.88;;;-1.50;100.00
62712;BME280;48772;55.586;37.730;2023-03-14T04:00:19;98725.78;;;-1.62;100.00
62712;BME280;48772;55.586;37.730;2023-03-14T04:02:46;98702.25;;;-1.62;100.00
62712;BME280;48772;55.586;37.730;2023-03-14T04:05:15;98799.69;;;-1.40;100.00
62712;BME280;48772;55.586;37.730;2023-03-14T04:07:47;98695.34;;;-1.63;100.00
62712;BME280;48772;55.586;37.730;2023-03-14T04:10:17;98763.50;;;-1.31;100.00
62712;BME280;48772;55.586;37.730;2023-03-14T04:12:57;98771.00;;;-1.23;100.00
62712;BME280;48772;55.586;37.730;2023-03-14T04:15:26;98779.75;;;-1.24;100.00
62712;BME280;48772;55.586;37.730;2023-03-14T04:17:57;98757.56;;;-1.34;100.00
62712;BME280;48772;55.586;37.730;2023-03-14T04:20:24;98745.13;;;-1.29;100.00
62712;BME280;48772;55.586;37.730;2023-03-14T04:22:49;98753.63;;;-1.24;100.00
62712;BME280;48772;55.586;37.730;2023-03-14T04:25:15;98721.59;;;-1.29;100.00
62712;BME280;48772;55.586;37.730;2023-03-14T04:27:47;98729.47;;;-1.12;100.00
62712;BME280;48772;55.586;37.730;2023-03-14T04:30:21;98757.53;;;-1.16;100.00
62712;BME280;48772;55.586;37.730;2023-03-14T04:32:56;98753.50;;;-1.04;100.00
62712;BME280;48772;55.586;37.730;2023-03-14T04:35:24;98741.22;;;-1.02;100.00
62712;BME280;48772;55.586;37.730;2023-03-14T04:37:54;98698.72;;;-1.07;100.00
62712;BME280;48772;55.586;37.730;2023-03-14T04:40:21;98696.03;;;-1.06;100.00
62712;BME280;48772;55.586;37.730;2023-03-14T04:42:49;98699.34;;;-1.02;100.00
62712;BME280;48772;55.586;37.730;2023-03-14T04:45:15;98682.41;;;-1.12;100.00
62712;BME280;48772;55.586;37.730;2023-03-14T04:47:42;98726.22;;;-0.82;100.00
62712;BME280;48772;55.586;37.730;2023-03-14T04:50:12;98697.13;;;-0.93;100.00
62712;BME280;48772;55.586;37.730;2023-03-14T04:52:38;98722.38;;;-0.75;100.00
62712;BME280;48772;55.586;37.730;2023-03-14T04:55:04;98727.38;;;-0.70;100.00
62712;BME280;48772;55.586;37.730;2023-03-14T04:57:30;98725.59;;;-0.70;100.00
62712;BME280;48772;55.586;37.730;2023-03-14T04:59:57;98756.34;;;-0.73;100.00
62712;BME280;48772;55.586;37.730;2023-03-14T05:02:39;98661.72;;;-1.00;100.00
62712;BME280;48772;55.586;37.730;2023-03-14T05:05:24;98713.50;;;-0.55;100.00
62712;BME280;48772;55.586;37.730;2023-03-14T05:08:17;98682.19;;;-0.74;100.00
62712;BME280;48772;55.586;37.730;2023-03-14T05:11:06;98693.13;;;-0.66;100.00
62712;BME280;48772;55.586;37.730;2023-03-14T05:14:01;98651.16;;;-0.64;100.00
62712;BME280;48772;55.586;37.730;2023-03-14T05:17:05;98691.31;;;-0.31;100.00
62712;BME280;48772;55.586;37.730;2023-03-14T05:19:54;98639.09;;;-0.34;100.00
62712;BME280;48772;55.586;37.730;2023-03-14T05:22:48;98631.81;;;-0.45;100.00
62712;BME280;48772;55.586;37.730;2023-03-14T05:25:32;98672.75;;;-0.11;100.00
62712;BME280;48772;55.586;37.730;2023-03-14T05:28:16;98628.34;;;-0.13;100.00
62712;BME280;48772;55.586;37.730;2023-03-14T05:30:53;98648.34;;;-0.12;100.00
62712;BME280;48772;55.586;37.730;2023-03-14T05:33:32;98658.78;;;0.06;100.00
62712;BME280;48772;55.586;37.730;2023-03-14T05:36:27;98623.25;;;-0.16;100.00
62712;BME280;48772;55.586;37.730;2023-03-14T05:39:19;98627.50;;;0.18;100.00
62712;BME280;48772;55.586;37.730;2023-03-14T05:42:07;98649.31;;;0.19;100.00
62712;BME280;48772;55.586;37.730;2023-03-14T05:44:50;98651.63;;;0.25;100.00
62712;BME280;48772;55.586;37.730;2023-03-14T05:47:45;98649.50;;;0.31;100.00
62712;BME280;48772;55.586;37.730;2023-03-14T05:50:37;98636.22;;;0.34;100.00
62712;BME280;48772;55.586;37.730;2023-03-14T05:53:28;98672.81;;;0.51;100.00
62712;BME280;48772;55.586;37.730;2023-03-14T05:56:13;98621.59;;;0.30;100.00
62712;BME280;48772;55.586;37.730;2023-03-14T05:58:59;98637.09;;;0.80;100.00
62712;BME280;48772;55.586;37.730;2023-03-14T06:01:41;98664.47;;;0.90;100.00
62712;BME280;48772;55.586;37.730;2023-03-14T06:04:13;98674.97;;;1.05;100.00
62712;BME280;48772;55.586;37.730;2023-03-14T06:06:39;98634.09;;;1.01;100.00
62712;BME280;48772;55.586;37.730;2023-03-14T06:09:07;98592.81;;;0.89;100.00
62712;BME280;48772;55.586;37.730;2023-03-14T06:11:36;98607.19;;;0.98;100.00
62712;BME280;48772;55.586;37.730;2023-03-14T06:14:03;98613.75;;;1.05;100.00
62712;BME280;48772;55.586;37.730;2023-03-14T06:16:29;98622.19;;;1.39;100.00
62712;BME280;48772;55.586;37.730;2023-03-14T06:18:54;98623.88;;;1.40;100.00
62712;BME280;48772;55.586;37.730;2023-03-14T06:21:22;98590.97;;;1.05;100.00
62712;BME280;48772;55.586;37.730;2023-03-14T06:23:48;98643.00;;;1.56;100.00
62712;BME280;48772;55.586;37.730;2023-03-14T06:26:15;98591.88;;;1.34;100.00
62712;BME280;48772;55.586;37.730;2023-03-14T06:28:40;98608.78;;;1.58;100.00
62712;BME280;48772;55.586;37.730;2023-03-14T06:31:07;98632.97;;;1.77;100.00
62712;BME280;48772;55.586;37.730;2023-03-14T06:33:40;98641.34;;;1.69;100.00
62712;BME280;48772;55.586;37.730;2023-03-14T06:36:07;98647.16;;;1.88;100.00
62712;BME280;48772;55.586;37.730;2023-03-14T06:38:34;98558.31;;;1.67;100.00
62712;BME280;48772;55.586;37.730;2023-03-14T06:41:04;98575.44;;;1.86;100.00
62712;BME280;48772;55.586;37.730;2023-03-14T06:43:36;98645.56;;;2.00;100.00
62712;BME280;48772;55.586;37.730;2023-03-14T06:46:03;98648.00;;;2.03;100.00
62712;BME280;48772;55.586;37.730;2023-03-14T06:48:31;98614.47;;;2.06;100.00
62712;BME280;48772;55.586;37.730;2023-03-14T06:50:56;98618.97;;;2.04;100.00
62712;BME280;48772;55.586;37.730;2023-03-14T06:53:22;98615.78;;;2.13;100.00
62712;BME280;48772;55.586;37.730;2023-03-14T06:55:48;98603.00;;;2.21;100.00
62712;BME280;48772;55.586;37.730;2023-03-14T06:58:16;98607.41;;;2.21;100.00
62712;BME280;48772;55.586;37.730;2023-03-14T07:00:44;98598.28;;;2.26;100.00
62712;BME280;48772;55.586;37.730;2023-03-14T07:03:13;98580.06;;;2.23;100.00
62712;BME280;48772;55.586;37.730;2023-03-14T07:05:41;98617.81;;;2.36;100.00
62712;BME280;48772;55.586;37.730;2023-03-14T07:08:08;98621.72;;;2.43;100.00
62712;BME280;48772;55.586;37.730;2023-03-14T07:10:34;98582.66;;;2.37;100.00
62712;BME280;48772;55.586;37.730;2023-03-14T07:13:00;98606.09;;;2.54;100.00
62712;BME280;48772;55.586;37.730;2023-03-14T07:15:29;98598.22;;;2.54;100.00
62712;BME280;48772;55.586;37.730;2023-03-14T07:18:00;98608.25;;;2.62;100.00
62712;BME280;48772;55.586;37.730;2023-03-14T07:20:27;98645.25;;;2.73;100.00
62712;BME280;48772;55.586;37.730;2023-03-14T07:22:52;98591.75;;;2.72;100.00
62712;BME280;48772;55.586;37.730;2023-03-14T07:25:28;98560.75;;;2.63;100.00
62712;BME280;48772;55.586;37.730;2023-03-14T07:27:54;98595.91;;;2.89;100.00
62712;BME280;48772;55.586;37.730;2023-03-14T07:30:20;98601.41;;;2.98;100.00
62712;BME280;48772;55.586;37.730;2023-03-14T07:32:46;98585.63;;;3.11;100.00
62712;BME280;48772;55.586;37.730;2023-03-14T07:35:13;98606.72;;;3.23;100.00
62712;BME280;48772;55.586;37.730;2023-03-14T07:37:40;98612.09;;;3.22;100.00
62712;BME280;48772;55.586;37.730;2023-03-14T07:40:06;98613.28;;;3.30;100.00
62712;BME280;48772;55.586;37.730;2023-03-14T07:42:34;98608.94;;;3.29;100.00
62712;BME280;48772;55.586;37.730;2023-03-14T07:45:13;98586.94;;;3.30;100.00
62712;BME280;48772;55.586;37.730;2023-03-14T07:47:39;98576.06;;;3.22;100.00
62712;BME280;48772;55.586;37.730;2023-03-14T07:50:05;98601.38;;;3.37;100.00
62712;BME280;48772;55.586;37.730;2023-03-14T07:52:31;98611.69;;;3.40;100.00
62712;BME280;48772;55.586;37.730;2023-03-14T07:54:57;98595.75;;;3.42;100.00
62712;BME280;48772;55.586;37.730;2023-03-14T07:57:23;98606.66;;;3.50;100.00
62712;BME280;48772;55.586;37.730;2023-03-14T07:59:49;98605.16;;;3.58;100.00
62712;BME280;48772;55.586;37.730;2023-03-14T08:02:15;98580.41;;;3.48;100.00
62712;BME280;48772;55.586;37.730;2023-03-14T08:04:41;98591.88;;;3.73;100.00
62712;BME280;48772;55.586;37.730;2023-03-14T08:07:07;98596.19;;;3.74;100.00
62712;BME280;48772;55.586;37.730;2023-03-14T08:09:33;98586.28;;;3.77;100.00
62712;BME280;48772;55.586;37.730;2023-03-14T08:11:59;98612.66;;;3.77;100.00
62712;BME280;48772;55.586;37.730;2023-03-14T08:14:24;98597.25;;;3.71;100.00
62712;BME280;48772;55.586;37.730;2023-03-14T08:16:50;98606.22;;;3.69;100.00
62712;BME280;48772;55.586;37.730;2023-03-14T08:19:16;98641.94;;;3.73;100.00
62712;BME280;48772;55.586;37.730;2023-03-14T08:21:42;98602.72;;;3.68;100.00
62712;BME280;48772;55.586;37.730;2023-03-14T08:24:09;98609.16;;;3.77;100.00
62712;BME280;48772;55.586;37.730;2023-03-14T08:26:34;98614.31;;;3.91;100.00
62712;BME280;48772;55.586;37.730;2023-03-14T08:29:00;98658.53;;;3.87;100.00
62712;BME280;48772;55.586;37.730;2023-03-14T08:31:26;98615.56;;;3.98;100.00
62712;BME280;48772;55.586;37.730;2023-03-14T08:33:52;98638.91;;;3.91;100.00
62712;BME280;48772;55.586;37.730;2023-03-14T08:36:19;98632.66;;;3.92;100.00
62712;BME280;48772;55.586;37.730;2023-03-14T08:38:45;98603.16;;;4.00;100.00
62712;BME280;48772;55.586;37.730;2023-03-14T08:41:11;98608.41;;;4.00;100.00
62712;BME280;48772;55.586;37.730;2023-03-14T08:43:37;98613.25;;;4.06;100.00
62712;BME280;48772;55.586;37.730;2023-03-14T08:46:03;98613.13;;;4.07;100.00
62712;BME280;48772;55.586;37.730;2023-03-14T08:48:29;98645.44;;;4.11;100.00
62712;BME280;48772;55.586;37.730;2023-03-14T08:50:57;98589.31;;;3.96;100.00
62712;BME280;48772;55.586;37.730;2023-03-14T08:53:23;98612.72;;;4.13;100.00
62712;BME280;48772;55.586;37.730;2023-03-14T08:55:53;98586.75;;;4.07;100.00
62712;BME280;48772;55.586;37.730;2023-03-14T08:58:19;98617.13;;;4.25;100.00
62712;BME280;48772;55.586;37.730;2023-03-14T09:00:45;98635.06;;;4.20;100.00
62712;BME280;48772;55.586;37.730;2023-03-14T09:03:10;98619.94;;;4.35;100.00
62712;BME280;48772;55.586;37.730;2023-03-14T09:05:36;98596.28;;;4.33;100.00
62712;BME280;48772;55.586;37.730;2023-03-14T09:08:02;98588.72;;;4.29;100.00
62712;BME280;48772;55.586;37.730;2023-03-14T09:10:28;98606.00;;;4.45;100.00
62712;BME280;48772;55.586;37.730;2023-03-14T09:12:53;98607.09;;;4.54;100.00
62712;BME280;48772;55.586;37.730;2023-03-14T09:15:19;98592.44;;;4.50;100.00
62712;BME280;48772;55.586;37.730;2023-03-14T09:17:45;98598.25;;;4.55;100.00
62712;BME280;48772;55.586;37.730;2023-03-14T09:20:11;98602.13;;;4.62;100.00
62712;BME280;48772;55.586;37.730;2023-03-14T09:22:37;98584.94;;;4.56;100.00
62712;BME280;48772;55.586;37.730;2023-03-14T09:25:04;98590.06;;;4.58;100.00
62712;BME280;48772;55.586;37.730;2023-03-14T09:27:33;98575.66;;;4.51;100.00
62712;BME280;48772;55.586;37.730;2023-03-14T09:29:59;98602.50;;;4.68;100.00
62712;BME280;48772;55.586;37.730;2023-03-14T09:32:25;98626.06;;;4.71;100.00
62712;BME280;48772;55.586;37.730;2023-03-14T09:34:51;98597.63;;;4.75;100.00
62712;BME280;48772;55.586;37.730;2023-03-14T09:37:16;98610.09;;;4.73;100.00
62712;BME280;48772;55.586;37.730;2023-03-14T09:39:42;98599.06;;;4.79;100.00
62712;BME280;48772;55.586;37.730;2023-03-14T09:42:14;98590.44;;;4.77;100.00
62712;BME280;48772;55.586;37.730;2023-03-14T09:45:19;98629.03;;;4.90;100.00
62712;BME280;48772;55.586;37.730;2023-03-14T09:47:49;98580.38;;;4.82;100.00
62712;BME280;48772;55.586;37.730;2023-03-14T09:50:15;98635.53;;;4.97;100.00
62712;BME280;48772;55.586;37.730;2023-03-14T09:52:45;98583.38;;;4.88;100.00
62712;BME280;48772;55.586;37.730;2023-03-14T09:55:19;98604.41;;;4.90;100.00
62712;BME280;48772;55.586;37.730;2023-03-14T09:57:47;98562.97;;;4.79;100.00
62712;BME280;48772;55.586;37.730;2023-03-14T10:02:53;98562.53;;;4.96;100.00
62712;BME280;48772;55.586;37.730;2023-03-14T10:05:22;98589.13;;;5.06;100.00
62712;BME280;48772;55.586;37.730;2023-03-14T10:07:48;98568.06;;;4.93;100.00
62712;BME280;48772;55.586;37.730;2023-03-14T10:10:22;98594.44;;;5.17;100.00
62712;BME280;48772;55.586;37.730;2023-03-14T10:12:59;98589.31;;;5.26;100.00
62712;BME280;48772;55.586;37.730;2023-03-14T10:15:34;98597.34;;;5.25;100.00
62712;BME280;48772;55.586;37.730;2023-03-14T10:18:02;98566.81;;;5.21;100.00
62712;BME280;48772;55.586;37.730;2023-03-14T10:20:35;98604.31;;;5.26;100.00
62712;BME280;48772;55.586;37.730;2023-03-14T10:25:40;98569.75;;;5.40;100.00
62712;BME280;48772;55.586;37.730;2023-03-14T10:28:43;98569.88;;;5.49;100.00
62712;BME280;48772;55.586;37.730;2023-03-14T10:31:10;98548.50;;;5.52;100.00
62712;BME280;48772;55.586;37.730;2023-03-14T10:33:37;98588.28;;;5.62;100.00
62712;BME280;48772;55.586;37.730;2023-03-14T10:38:41;98551.63;;;5.57;100.00
62712;BME280;48772;55.586;37.730;2023-03-14T10:41:20;98558.56;;;5.58;100.00
62712;BME280;48772;55.586;37.730;2023-03-14T10:43:51;98568.91;;;5.61;100.00
62712;BME280;48772;55.586;37.730;2023-03-14T10:46:20;98524.34;;;5.35;100.00
62712;BME280;48772;55.586;37.730;2023-03-14T10:49:05;98561.13;;;5.71;100.00
62712;BME280;48772;55.586;37.730;2023-03-14T10:51:32;98557.88;;;5.78;100.00
62712;BME280;48772;55.586;37.730;2023-03-14T10:54:03;98545.38;;;5.80;100.00
62712;BME280;48772;55.586;37.730;2023-03-14T10:56:37;98544.34;;;5.94;100.00
62712;BME280;48772;55.586;37.730;2023-03-14T10:59:07;98549.13;;;6.00;100.00
62712;BME280;48772;55.586;37.730;2023-03-14T11:01:59;98523.19;;;5.94;100.00
62712;BME280;48772;55.586;37.730;2023-03-14T11:07:12;98557.78;;;6.24;100.00
62712;BME280;48772;55.586;37.730;2023-03-14T11:15:05;98559.69;;;6.22;100.00
62712;BME280;48772;55.586;37.730;2023-03-14T11:21:12;98556.81;;;6.25;100.00
62712;BME280;48772;55.586;37.730;2023-03-14T11:23:46;98551.25;;;6.39;100.00
62712;BME280;48772;55.586;37.730;2023-03-14T11:26:27;98564.34;;;6.40;100.00
62712;BME280;48772;55.586;37.730;2023-03-14T11:29:19;98558.56;;;6.46;100.00
62712;BME280;48772;55.586;37.730;2023-03-14T11:31:46;98552.22;;;6.38;100.00
62712;BME280;48772;55.586;37.730;2023-03-14T11:37:04;98582.00;;;6.51;100.00
62712;BME280;48772;55.586;37.730;2023-03-14T11:39:43;98529.38;;;6.15;100.00
62712;BME280;48772;55.586;37.730;2023-03-14T11:42:15;98551.69;;;6.44;100.00
62712;BME280;48772;55.586;37.730;2023-03-14T11:44:45;98563.03;;;6.46;100.00
62712;BME280;48772;55.586;37.730;2023-03-14T11:50:21;98576.03;;;6.49;100.00
62712;BME280;48772;55.586;37.730;2023-03-14T11:52:56;98604.06;;;6.51;100.00
62712;BME280;48772;55.586;37.730;2023-03-14T11:55:30;98560.13;;;6.49;100.00
62712;BME280;48772;55.586;37.730;2023-03-14T11:58:13;98565.75;;;6.55;100.00
62712;BME280;48772;55.586;37.730;2023-03-14T12:00:40;98559.38;;;6.58;100.00
62712;BME280;48772;55.586;37.730;2023-03-14T12:08:39;98570.25;;;6.75;100.00
62712;BME280;48772;55.586;37.730;2023-03-14T12:11:13;98613.50;;;6.76;100.00
62712;BME280;48772;55.586;37.730;2023-03-14T12:13:46;98580.66;;;6.67;100.00
62712;BME280;48772;55.586;37.730;2023-03-14T12:18:52;98563.69;;;6.59;100.00
62712;BME280;48772;55.586;37.730;2023-03-14T12:21:19;98596.00;;;6.53;100.00
62712;BME280;48772;55.586;37.730;2023-03-14T12:23:51;98577.94;;;6.47;100.00
62712;BME280;48772;55.586;37.730;2023-03-14T12:26:23;98618.84;;;6.54;100.00
62712;BME280;48772;55.586;37.730;2023-03-14T12:34:27;98573.28;;;6.28;100.00
62712;BME280;48772;55.586;37.730;2023-03-14T12:42:08;98609.03;;;6.23;100.00
62712;BME280;48772;55.586;37.730;2023-03-14T12:44:40;98592.88;;;6.26;100.00
62712;BME280;48772;55.586;37.730;2023-03-14T12:49:52;98611.41;;;6.15;100.00
62712;BME280;48772;55.586;37.730;2023-03-14T12:52:33;98588.56;;;6.03;100.00
62712;BME280;48772;55.586;37.730;2023-03-14T12:55:21;98592.19;;;6.13;100.00
62712;BME280;48772;55.586;37.730;2023-03-14T13:00:55;98593.63;;;5.95;100.00
62712;BME280;48772;55.586;37.730;2023-03-14T13:03:24;98597.13;;;5.84;100.00
62712;BME280;48772;55.586;37.730;2023-03-14T13:05:58;98600.31;;;5.77;100.00
62712;BME280;48772;55.586;37.730;2023-03-14T13:08:44;98593.75;;;5.82;100.00
62712;BME280;48772;55.586;37.730;2023-03-14T13:11:15;98603.72;;;5.79;100.00
62712;BME280;48772;55.586;37.730;2023-03-14T13:13:48;98591.41;;;5.78;100.00
62712;BME280;48772;55.586;37.730;2023-03-14T13:16:20;98626.53;;;5.80;100.00
62712;BME280;48772;55.586;37.730;2023-03-14T13:18:50;98611.00;;;5.64;100.00
62712;BME280;48772;55.586;37.730;2023-03-14T13:21:26;98608.00;;;5.69;100.00
62712;BME280;48772;55.586;37.730;2023-03-14T13:24:07;98605.13;;;5.61;100.00
62712;BME280;48772;55.586;37.730;2023-03-14T13:26:44;98609.81;;;5.68;100.00
62712;BME280;48772;55.586;37.730;2023-03-14T13:29:16;98595.38;;;5.61;100.00
62712;BME280;48772;55.586;37.730;2023-03-14T13:31:56;98623.84;;;5.58;100.00
62712;BME280;48772;55.586;37.730;2023-03-14T13:34:26;98619.03;;;5.52;100.00
62712;BME280;48772;55.586;37.730;2023-03-14T13:36:54;98614.09;;;5.47;100.00
62712;BME280;48772;55.586;37.730;2023-03-14T13:39:22;98588.03;;;5.54;100.00
62712;BME280;48772;55.586;37.730;2023-03-14T13:41:52;98580.44;;;5.49;100.00
62712;BME280;48772;55.586;37.730;2023-03-14T13:44:30;98561.56;;;5.32;100.00
62712;BME280;48772;55.586;37.730;2023-03-14T13:47:01;98606.75;;;5.40;100.00
62712;BME280;48772;55.586;37.730;2023-03-14T13:49:28;98586.94;;;5.45;100.00
62712;BME280;48772;55.586;37.730;2023-03-14T13:51:56;98529.16;;;4.95;100.00
62712;BME280;48772;55.586;37.730;2023-03-14T13:54:22;98600.38;;;5.42;100.00
62712;BME280;48772;55.586;37.730;2023-03-14T13:57:00;98621.06;;;5.37;100.00
62712;BME280;48772;55.586;37.730;2023-03-14T13:59:28;98564.19;;;5.21;100.00
62712;BME280;48772;55.586;37.730;2023-03-14T14:01:56;98569.13;;;5.36;100.00